Time;durP1;ratioP1;P1;durP2;ratioP2;P2;SDS_P1;SDS_P2;PMS_P1;PMS_P2;Temp;Humidity;BMP_temperature;BMP_pressure;BME280_temperature;BME280_humidity;BME280_pressure;Samples;Min_cycle;Max_cycle;Signal;HPM_P1;HPM_P2
2022/05/27 00:01:12;;;;;;;4.57;1.48;;;;;;;;;;5052681;28;20033;-69
2022/05/27 00:03:38;;;;;;;4.00;1.63;;;;;;;;;;5057887;28;20024;-69
2022/05/27 00:06:04;;;;;;;5.88;1.40;;;;;;;;;;5062902;28;20055;-69
2022/05/27 00:08:31;;;;;;;4.40;1.50;;;;;;;;;;5061478;28;20055;-69
2022/05/27 00:10:58;;;;;;;6.05;1.80;;;;;;;;;;5054932;28;20089;-69
2022/05/27 00:13:24;;;;;;;4.70;1.50;;;;;;;;;;5050395;28;20144;-69
2022/05/27 00:15:50;;;;;;;4.72;1.77;;;;;;;;;;5058542;28;20063;-69
2022/05/27 00:18:16;;;;;;;5.32;1.88;;;;;;;;;;5055252;28;20047;-69
2022/05/27 00:20:43;;;;;;;5.72;1.70;;;;;;;;;;5054892;28;20044;-70
2022/05/27 00:23:09;;;;;;;5.07;1.60;;;;;;;;;;5050794;28;20035;-69
2022/05/27 00:25:35;;;;;;;3.97;1.55;;;;;;;;;;5056520;28;20086;-70
2022/05/27 00:28:01;;;;;;;7.53;2.08;;;;;;;;;;5053956;28;20036;-69
2022/05/27 00:30:28;;;;;;;5.22;1.63;;;;;;;;;;5054497;28;20040;-69
2022/05/27 00:32:54;;;;;;;5.95;1.70;;;;;;;;;;5054494;28;20033;-69
2022/05/27 00:35:21;;;;;;;7.28;1.80;;;;;;;;;;5054426;28;20086;-69
2022/05/27 00:37:47;;;;;;;5.28;2.17;;;;;;;;;;5054451;28;20106;-69
2022/05/27 00:40:14;;;;;;;5.78;1.63;;;;;;;;;;5054487;28;20041;-69
2022/05/27 00:42:41;;;;;;;6.35;1.85;;;;;;;;;;5055253;28;20108;-67
2022/05/27 00:45:10;;;;;;;6.30;1.80;;;;;;;;;;5054453;28;20043;-67
2022/05/27 00:47:39;;;;;;;8.88;1.55;;;;;;;;;;5054306;28;20021;-67
2022/05/27 00:50:08;;;;;;;7.38;2.03;;;;;;;;;;5053910;28;20033;-67
2022/05/27 00:52:34;;;;;;;5.38;1.80;;;;;;;;;;5054290;28;20060;-67
2022/05/27 00:55:02;;;;;;;5.63;1.60;;;;;;;;;;5053316;28;20063;-67
2022/05/27 00:57:32;;;;;;;5.40;1.80;;;;;;;;;;5055652;28;20059;-67
2022/05/27 01:00:01;;;;;;;5.63;1.73;;;;;;;;;;5052566;28;20033;-67
2022/05/27 01:02:28;;;;;;;13.77;2.00;;;;;;;;;;5054210;28;20119;-67
2022/05/27 01:04:54;;;;;;;5.88;1.85;;;;;;;;;;5055252;28;20104;-67
2022/05/27 01:07:20;;;;;;;7.38;1.85;;;;;;;;;;5037527;28;20546;-67
2022/05/27 01:09:48;;;;;;;4.57;1.70;;;;;;;;;;5053569;28;20033;-67
2022/05/27 01:12:33;;;;;;;7.32;2.10;;;;;;;;;;5053097;28;20066;-67
2022/05/27 01:15:02;;;;;;;6.00;1.75;;;;;;;;;;5054033;28;20055;-67
2022/05/27 01:17:48;;;;;;;4.03;1.60;;;;;;;;;;5052125;28;20347;-67
2022/05/27 01:20:24;;;;;;;7.75;2.00;;;;;;;;;;5054680;28;20475;-67
2022/05/27 01:22:50;;;;;;;6.22;1.80;;;;;;;;;;5053392;28;20086;-67
2022/05/27 01:25:19;;;;;;;5.45;1.80;;;;;;;;;;5053689;28;20036;-67
2022/05/27 01:27:59;;;;;;;6.30;1.73;;;;;;;;;;5052409;28;20039;-67
2022/05/27 01:30:34;;;;;;;6.07;2.00;;;;;;;;;;5053508;28;20048;-67
2022/05/27 01:33:03;;;;;;;6.00;1.98;;;;;;;;;;5053235;28;20029;-67
2022/05/27 01:35:29;;;;;;;4.78;1.92;;;;;;;;;;5053156;28;20178;-67
2022/05/27 01:38:07;;;;;;;5.25;1.85;;;;;;;;;;5053443;28;20028;-67
2022/05/27 01:40:38;;;;;;;4.70;1.55;;;;;;;;;;5052913;28;20067;-67
2022/05/27 01:43:22;;;;;;;6.50;1.98;;;;;;;;;;5053201;28;20032;-69
2022/05/27 01:45:57;;;;;;;7.30;1.95;;;;;;;;;;5053005;28;20082;-69
2022/05/27 01:48:42;;;;;;;8.50;2.00;;;;;;;;;;5052938;28;20059;-69
2022/05/27 01:51:12;;;;;;;5.82;2.00;;;;;;;;;;5052650;28;20041;-69
2022/05/27 01:53:43;;;;;;;6.90;1.80;;;;;;;;;;5053418;28;20021;-69
2022/05/27 01:56:12;;;;;;;5.68;2.40;;;;;;;;;;5053101;28;20033;-69
2022/05/27 01:58:41;;;;;;;7.93;1.90;;;;;;;;;;5054698;28;20136;-68
2022/05/27 02:01:10;;;;;;;6.15;1.77;;;;;;;;;;5053146;28;20032;-69
2022/05/27 02:04:05;;;;;;;5.82;1.77;;;;;;;;;;5050872;28;20330;-70
2022/05/27 02:06:35;;;;;;;5.72;1.83;;;;;;;;;;5034881;28;20049;-69
2022/05/27 02:09:04;;;;;;;6.78;1.83;;;;;;;;;;5052657;28;20037;-69
2022/05/27 02:11:31;;;;;;;6.05;1.85;;;;;;;;;;5053030;28;20061;-69
2022/05/27 02:14:03;;;;;;;5.78;1.90;;;;;;;;;;5053289;28;20025;-70
2022/05/27 02:16:32;;;;;;;8.02;2.08;;;;;;;;;;5053190;28;20082;-70
2022/05/27 02:19:01;;;;;;;11.45;2.00;;;;;;;;;;5052207;28;20041;-69
2022/05/27 02:21:33;;;;;;;8.00;2.35;;;;;;;;;;5051702;28;20033;-69
2022/05/27 02:24:09;;;;;;;6.13;2.00;;;;;;;;;;5054138;28;20398;-69
2022/05/27 02:26:39;;;;;;;6.03;1.88;;;;;;;;;;5052587;28;20040;-69
2022/05/27 02:29:11;;;;;;;6.05;2.08;;;;;;;;;;5051980;28;20040;-70
2022/05/27 02:31:39;;;;;;;5.13;2.30;;;;;;;;;;5053018;28;20037;-69
2022/05/27 02:37:14;;;;;;;5.93;1.98;;;;;;;;;;5052148;28;20577;-69
2022/05/27 02:39:40;;;;;;;6.05;2.10;;;;;;;;;;5055152;28;20032;-70
2022/05/27 02:42:06;;;;;;;5.82;1.90;;;;;;;;;;5056913;28;20029;-69
2022/05/27 02:44:39;;;;;;;7.80;2.30;;;;;;;;;;5056412;28;20033;-67
2022/05/27 02:47:08;;;;;;;5.18;1.90;;;;;;;;;;5056910;28;20024;-66
2022/05/27 02:49:53;;;;;;;6.03;1.88;;;;;;;;;;5056691;28;20021;-67
2022/05/27 02:52:31;;;;;;;6.68;2.05;;;;;;;;;;5057246;28;20037;-67
2022/05/27 02:55:01;;;;;;;4.97;1.70;;;;;;;;;;5051371;28;20557;-67
2022/05/27 02:57:41;;;;;;;5.43;2.00;;;;;;;;;;5056866;28;20028;-67
2022/05/27 03:00:09;;;;;;;8.48;2.10;;;;;;;;;;5056055;28;20025;-67
2022/05/27 03:02:35;;;;;;;4.65;2.00;;;;;;;;;;5056409;28;20087;-66
2022/05/27 03:05:01;;;;;;;6.22;2.35;;;;;;;;;;5056359;28;20036;-67
2022/05/27 03:07:35;;;;;;;7.60;2.13;;;;;;;;;;5055974;28;20192;-67
2022/05/27 03:10:01;;;;;;;;;;;;;;;;;;5054811;28;20499;-67
2022/05/27 03:12:35;;;;;;;7.00;2.20;;;;;;;;;;5055731;28;19908;-67
2022/05/27 03:15:02;;;;;;;7.40;2.25;;;;;;;;;;5055205;28;20029;-67
2022/05/27 03:17:42;;;;;;;11.32;2.00;;;;;;;;;;5057240;28;20063;-67
2022/05/27 03:20:08;;;;;;;8.40;2.38;;;;;;;;;;5055650;28;20029;-67
2022/05/27 03:22:57;;;;;;;4.78;1.95;;;;;;;;;;5055549;28;20040;-67
2022/05/27 03:25:32;;;;;;;6.85;2.00;;;;;;;;;;5045289;28;20039;-67
2022/05/27 03:28:08;;;;;;;4.35;1.98;;;;;;;;;;5054611;28;20021;-67
2022/05/27 03:30:38;;;;;;;5.10;2.20;;;;;;;;;;5052911;28;20041;-67
2022/05/27 03:33:04;;;;;;;7.13;2.35;;;;;;;;;;5055925;28;20028;-67
2022/05/27 03:35:36;;;;;;;6.03;2.33;;;;;;;;;;5055592;28;20116;-67
2022/05/27 03:38:26;;;;;;;5.70;1.80;;;;;;;;;;5055531;28;20032;-67
2022/05/27 03:40:54;;;;;;;3.85;1.70;;;;;;;;;;5056394;28;20033;-67
2022/05/27 03:43:21;;;;;;;3.95;2.10;;;;;;;;;;5056140;28;20027;-69
2022/05/27 03:45:51;;;;;;;7.63;2.42;;;;;;;;;;5055010;28;20543;-69
2022/05/27 03:48:19;;;;;;;5.03;1.90;;;;;;;;;;5055958;28;20866;-69
2022/05/27 03:50:46;;;;;;;5.40;2.08;;;;;;;;;;5055396;28;20481;-69
2022/05/27 03:53:12;;;;;;;5.00;2.05;;;;;;;;;;5055489;28;20029;-70
2022/05/27 03:55:44;;;;;;;5.85;2.10;;;;;;;;;;5056816;28;20028;-69
2022/05/27 03:58:11;;;;;;;5.97;2.13;;;;;;;;;;5054953;28;20477;-69
2022/05/27 04:00:37;;;;;;;8.30;2.40;;;;;;;;;;5054247;28;20037;-69
2022/05/27 04:03:04;;;;;;;5.40;1.85;;;;;;;;;;5055142;28;20029;-70
2022/05/27 04:05:30;;;;;;;7.88;2.10;;;;;;;;;;5054788;28;20709;-69
2022/05/27 04:07:56;;;;;;;4.70;1.98;;;;;;;;;;5055126;28;20094;-69
2022/05/27 04:10:23;;;;;;;6.38;2.30;;;;;;;;;;5055464;28;20098;-69
2022/05/27 04:12:49;;;;;;;5.90;2.00;;;;;;;;;;5054396;28;20226;-70
2022/05/27 04:15:15;;;;;;;5.15;2.00;;;;;;;;;;5055095;28;20454;-69
2022/05/27 04:17:42;;;;;;;5.90;2.15;;;;;;;;;;5055141;28;20029;-69
2022/05/27 04:20:08;;;;;;;5.13;2.08;;;;;;;;;;5056250;28;20025;-69
2022/05/27 04:22:35;;;;;;;5.53;1.90;;;;;;;;;;5053549;28;20036;-69
2022/05/27 04:25:01;;;;;;;6.38;1.92;;;;;;;;;;5054768;28;20056;-69
2022/05/27 04:27:28;;;;;;;6.53;2.10;;;;;;;;;;5053939;28;20439;-69
2022/05/27 04:29:55;;;;;;;7.25;1.80;;;;;;;;;;5054546;28;20465;-69
2022/05/27 04:32:27;;;;;;;6.78;2.50;;;;;;;;;;5054854;28;20485;-69
2022/05/27 04:34:54;;;;;;;9.32;2.35;;;;;;;;;;5056182;28;20032;-69
2022/05/27 04:37:21;;;;;;;5.82;2.10;;;;;;;;;;5038331;28;20029;-69
2022/05/27 04:39:47;;;;;;;5.53;1.90;;;;;;;;;;5053805;28;20512;-69
2022/05/27 04:42:16;;;;;;;5.50;2.13;;;;;;;;;;5054405;28;20078;-68
2022/05/27 04:44:43;;;;;;;4.15;2.13;;;;;;;;;;5053891;28;20087;-67
2022/05/27 04:47:09;;;;;;;4.65;1.88;;;;;;;;;;5054412;28;20028;-67
2022/05/27 04:49:51;;;;;;;7.13;2.55;;;;;;;;;;5054409;28;20139;-67
2022/05/27 04:52:23;;;;;;;6.70;2.20;;;;;;;;;;5054160;28;20162;-67
2022/05/27 04:54:50;;;;;;;4.88;2.10;;;;;;;;;;5048150;28;20031;-68
2022/05/27 04:57:18;;;;;;;5.03;1.90;;;;;;;;;;5054062;28;20025;-67
2022/05/27 04:59:46;;;;;;;4.65;1.90;;;;;;;;;;5055142;28;20029;-67
2022/05/27 05:02:13;;;;;;;7.05;1.83;;;;;;;;;;5053534;28;20527;-67
2022/05/27 05:04:39;;;;;;;4.32;2.03;;;;;;;;;;5054078;28;20509;-67
2022/05/27 05:07:07;;;;;;;5.63;1.90;;;;;;;;;;5052748;28;20479;-67
2022/05/27 05:09:34;;;;;;;5.90;1.80;;;;;;;;;;5051169;28;20392;-67
2022/05/27 05:12:01;;;;;;;6.00;2.05;;;;;;;;;;5054125;28;20021;-67
2022/05/27 05:14:27;;;;;;;5.53;1.90;;;;;;;;;;5054023;28;20036;-67
2022/05/27 05:16:53;;;;;;;6.57;1.90;;;;;;;;;;5053356;28;20033;-66
2022/05/27 05:19:19;;;;;;;8.70;1.80;;;;;;;;;;5053591;28;20048;-67
2022/05/27 05:21:45;;;;;;;7.25;1.80;;;;;;;;;;5053400;28;20044;-67
2022/05/27 05:24:11;;;;;;;5.10;2.50;;;;;;;;;;5052050;28;20033;-67
2022/05/27 05:26:38;;;;;;;5.03;2.00;;;;;;;;;;5052242;28;20023;-67
2022/05/27 05:29:06;;;;;;;5.90;1.65;;;;;;;;;;5054855;28;20541;-67
2022/05/27 05:31:32;;;;;;;6.30;2.00;;;;;;;;;;5053435;28;20045;-67
2022/05/27 05:33:59;;;;;;;4.82;1.92;;;;;;;;;;5052225;28;20401;-67
2022/05/27 05:36:29;;;;;;;4.55;1.80;;;;;;;;;;5054082;28;20114;-67
2022/05/27 05:38:55;;;;;;;4.63;1.83;;;;;;;;;;5054192;28;20584;-67
2022/05/27 05:41:26;;;;;;;4.95;2.22;;;;;;;;;;5052367;28;20043;-67
2022/05/27 05:43:52;;;;;;;6.68;1.85;;;;;;;;;;5054001;28;20465;-69
2022/05/27 05:46:18;;;;;;;5.50;2.08;;;;;;;;;;5053358;28;20036;-69
2022/05/27 05:48:45;;;;;;;6.10;1.95;;;;;;;;;;5052497;28;20062;-69
2022/05/27 05:51:11;;;;;;;4.80;1.80;;;;;;;;;;5054468;28;20386;-69
2022/05/27 05:53:37;;;;;;;6.60;2.15;;;;;;;;;;5054713;28;20032;-69
2022/05/27 05:56:03;;;;;;;6.53;2.08;;;;;;;;;;5053370;28;20082;-69
2022/05/27 05:58:29;;;;;;;7.78;2.10;;;;;;;;;;5053801;28;20033;-69
2022/05/27 06:00:55;;;;;;;5.57;2.20;;;;;;;;;;5031798;28;20030;-69
2022/05/27 06:03:21;;;;;;;6.35;2.20;;;;;;;;;;5053488;28;20099;-69
2022/05/27 06:05:48;;;;;;;5.13;1.67;;;;;;;;;;5053503;28;20037;-69
2022/05/27 06:08:18;;;;;;;5.93;2.03;;;;;;;;;;5053901;28;20049;-70
2022/05/27 06:10:45;;;;;;;8.13;2.10;;;;;;;;;;5055112;28;20036;-69
2022/05/27 06:13:12;;;;;;;13.93;1.95;;;;;;;;;;5057492;28;20108;-70
2022/05/27 06:15:38;;;;;;;4.90;1.80;;;;;;;;;;5056832;28;20033;-69
2022/05/27 06:18:05;;;;;;;4.90;1.90;;;;;;;;;;5057999;28;20024;-67
2022/05/27 06:20:32;;;;;;;4.32;1.85;;;;;;;;;;5058203;28;20029;-70
2022/05/27 06:22:58;;;;;;;5.47;1.77;;;;;;;;;;5055896;28;20090;-70
2022/05/27 06:25:25;;;;;;;6.20;1.88;;;;;;;;;;5056390;28;20025;-69
2022/05/27 06:34:23;;;;;;;7.53;2.10;;;;;;;;;;5056355;28;20071;-70
2022/05/27 06:36:07;;;;;;;7.75;1.90;;;;;;;;;;5057015;28;20047;-70
2022/05/27 06:38:33;;;;;;;9.32;1.95;;;;;;;;;;5055346;28;20135;-69
2022/05/27 06:41:00;;;;;;;7.22;1.85;;;;;;;;;;5055336;28;20029;-68
2022/05/27 06:43:26;;;;;;;6.75;2.00;;;;;;;;;;5057353;28;20029;-69
2022/05/27 06:45:52;;;;;;;6.78;2.05;;;;;;;;;;5056147;28;20025;-70
2022/05/27 06:48:18;;;;;;;6.20;1.65;;;;;;;;;;5057636;28;20039;-69
2022/05/27 06:50:44;;;;;;;4.57;1.70;;;;;;;;;;5055637;28;20029;-68
2022/05/27 06:53:10;;;;;;;7.35;2.15;;;;;;;;;;5056511;28;20060;-68
2022/05/27 06:55:36;;;;;;;6.47;1.92;;;;;;;;;;5056036;28;20036;-68
2022/05/27 06:58:03;;;;;;;5.20;1.75;;;;;;;;;;5055391;28;20025;-69
2022/05/27 07:00:29;;;;;;;8.98;1.98;;;;;;;;;;5054255;28;20035;-68
2022/05/27 07:02:55;;;;;;;6.88;1.70;;;;;;;;;;5056292;28;20021;-68
2022/05/27 07:05:22;;;;;;;7.18;2.20;;;;;;;;;;5054868;28;20033;-70
2022/05/27 07:07:50;;;;;;;8.05;2.42;;;;;;;;;;5054606;28;20032;-68
2022/05/27 07:10:16;;;;;;;5.95;2.00;;;;;;;;;;5053332;28;20488;-69
2022/05/27 07:12:42;;;;;;;5.90;1.90;;;;;;;;;;5055406;28;20036;-70
2022/05/27 07:15:09;;;;;;;6.75;1.88;;;;;;;;;;5055331;28;20150;-69
2022/05/27 07:17:35;;;;;;;5.05;2.03;;;;;;;;;;5054277;28;20022;-69
2022/05/27 07:20:03;;;;;;;3.72;1.90;;;;;;;;;;5055021;28;20051;-70
2022/05/27 07:22:29;;;;;;;7.63;2.53;;;;;;;;;;5055513;28;20048;-71
2022/05/27 07:24:55;;;;;;;4.72;1.90;;;;;;;;;;5055220;28;20025;-68
2022/05/27 07:27:21;;;;;;;6.85;2.17;;;;;;;;;;5055647;28;20040;-69
2022/05/27 07:29:47;;;;;;;8.77;2.00;;;;;;;;;;5055819;28;20029;-68
2022/05/27 07:32:14;;;;;;;5.32;1.88;;;;;;;;;;5055601;28;20095;-69
2022/05/27 07:34:40;;;;;;;7.22;2.03;;;;;;;;;;5056132;28;20591;-70
2022/05/27 07:37:07;;;;;;;5.90;2.10;;;;;;;;;;5054911;28;20040;-70
2022/05/27 07:39:33;;;;;;;7.30;2.00;;;;;;;;;;5053929;28;20040;-71
2022/05/27 07:41:59;;;;;;;10.05;2.55;;;;;;;;;;5054588;28;20021;-71
2022/05/27 07:44:25;;;;;;;8.15;2.13;;;;;;;;;;5055228;28;20017;-68
2022/05/27 07:46:53;;;;;;;9.20;1.85;;;;;;;;;;5055011;28;20033;-69
2022/05/27 07:49:19;;;;;;;5.53;1.83;;;;;;;;;;5054315;28;20481;-69
2022/05/27 07:51:46;;;;;;;7.20;2.00;;;;;;;;;;5053619;28;20048;-68
2022/05/27 07:54:12;;;;;;;7.57;1.98;;;;;;;;;;5054308;28;20110;-69
2022/05/27 07:56:39;;;;;;;8.80;1.98;;;;;;;;;;5054298;28;20029;-68
2022/05/27 07:59:06;;;;;;;5.32;1.83;;;;;;;;;;5054406;28;20036;-68
2022/05/27 08:01:32;;;;;;;6.82;1.80;;;;;;;;;;5055536;28;20029;-68
2022/05/27 08:03:58;;;;;;;8.40;1.95;;;;;;;;;;5054429;28;20024;-69
2022/05/27 08:06:24;;;;;;;10.85;1.92;;;;;;;;;;5056539;28;20124;-69
2022/05/27 08:08:50;;;;;;;7.88;1.90;;;;;;;;;;5053977;28;20037;-70
2022/05/27 08:11:17;;;;;;;4.70;1.70;;;;;;;;;;5053014;28;20040;-69
2022/05/27 08:13:43;;;;;;;7.10;2.08;;;;;;;;;;5055335;28;20032;-68
2022/05/27 08:16:10;;;;;;;13.57;2.08;;;;;;;;;;5053635;28;20465;-69
2022/05/27 08:18:37;;;;;;;5.68;1.63;;;;;;;;;;5053328;28;20500;-69
2022/05/27 08:21:03;;;;;;;5.97;1.73;;;;;;;;;;5049829;28;20477;-69
2022/05/27 08:23:29;;;;;;;4.78;1.92;;;;;;;;;;5049936;28;20055;-69
2022/05/27 08:25:56;;;;;;;6.32;1.90;;;;;;;;;;5051077;28;20032;-70
2022/05/27 08:28:24;;;;;;;8.23;2.10;;;;;;;;;;5056553;28;20021;-70
2022/05/27 08:30:51;;;;;;;4.90;1.60;;;;;;;;;;5048118;28;20044;-69
2022/05/27 08:33:20;;;;;;;6.32;1.90;;;;;;;;;;5038533;28;20509;-70
2022/05/27 08:38:32;;;;;;;7.63;1.80;;;;;;;;;;5048352;28;20113;-70
2022/05/27 08:41:04;;;;;;;5.65;2.28;;;;;;;;;;5049623;28;20036;-70
2022/05/27 08:43:38;;;;;;;6.30;1.70;;;;;;;;;;5047993;28;20501;-73
2022/05/27 08:46:04;;;;;;;;;;;;;;;;;;5049243;28;20112;-72
2022/05/27 08:48:32;;;;;;;5.40;1.70;;;;;;;;;;5049753;28;20008;-72
2022/05/27 08:51:01;;;;;;;8.43;1.90;;;;;;;;;;5047312;28;20036;-72
2022/05/27 08:53:27;;;;;;;6.90;2.10;;;;;;;;;;5046806;28;20033;-72
2022/05/27 09:01:46;;;;;;;7.88;1.95;;;;;;;;;;5035463;28;20075;-72
2022/05/27 09:04:32;;;;;;;6.63;1.70;;;;;;;;;;5050965;28;20060;-72
2022/05/27 09:07:03;;;;;;;6.53;1.88;;;;;;;;;;5047389;28;20113;-71
2022/05/27 09:09:30;;;;;;;8.07;2.05;;;;;;;;;;5050176;28;20036;-72
2022/05/27 09:12:15;;;;;;;8.40;1.80;;;;;;;;;;5047116;28;20037;-72
2022/05/27 09:14:45;;;;;;;6.43;1.92;;;;;;;;;;5047330;28;20043;-72
2022/05/27 09:17:15;;;;;;;6.82;2.53;;;;;;;;;;5046566;28;20024;-72
2022/05/27 09:20:17;;;;;;;5.70;1.77;;;;;;;;;;5047610;28;20033;-72
2022/05/27 09:22:52;;;;;;;7.95;1.80;;;;;;;;;;5007436;28;20025;-72
2022/05/27 09:25:33;;;;;;;6.20;2.10;;;;;;;;;;5007899;28;20052;-71
2022/05/27 09:28:18;;;;;;;5.63;2.10;;;;;;;;;;5004955;28;20036;-72
2022/05/27 09:30:44;;;;;;;8.95;2.13;;;;;;;;;;5007906;28;20049;-72
2022/05/27 09:33:11;;;;;;;6.70;1.65;;;;;;;;;;5007461;28;20061;-72
2022/05/27 09:35:49;;;;;;;6.93;2.05;;;;;;;;;;5007012;28;20044;-72
2022/05/27 09:38:20;;;;;;;6.03;1.90;;;;;;;;;;5006039;28;20050;-72
2022/05/27 09:40:47;;;;;;;6.72;1.98;;;;;;;;;;5005403;28;20048;-72
2022/05/27 09:43:19;;;;;;;6.80;1.88;;;;;;;;;;5006887;28;20054;-72
2022/05/27 09:45:49;;;;;;;7.35;1.70;;;;;;;;;;4989715;28;20049;-70
2022/05/27 09:48:15;;;;;;;8.38;1.80;;;;;;;;;;4994338;28;20038;-72
2022/05/27 09:50:46;;;;;;;6.47;1.60;;;;;;;;;;5000203;28;20579;-73
2022/05/27 09:53:16;;;;;;;7.70;1.70;;;;;;;;;;5004490;28;20088;-75
2022/05/27 09:55:46;;;;;;;5.45;1.80;;;;;;;;;;5007547;28;20130;-73
2022/05/27 09:58:13;;;;;;;10.57;1.92;;;;;;;;;;5039459;28;20025;-74
2022/05/27 10:00:41;;;;;;;5.47;1.60;;;;;;;;;;5046774;28;20025;-71
2022/05/27 10:03:22;;;;;;;11.07;1.92;;;;;;;;;;5047015;28;20048;-72
2022/05/27 10:08:33;;;;;;;4.07;1.80;;;;;;;;;;5059746;28;20562;-70
2022/05/27 10:11:09;;;;;;;7.70;1.65;;;;;;;;;;5048728;28;20128;-71
2022/05/27 10:13:36;;;;;;;6.07;2.10;;;;;;;;;;5047834;28;20025;-72
2022/05/27 10:16:10;;;;;;;5.47;1.50;;;;;;;;;;5047307;28;20119;-72
2022/05/27 10:18:36;;;;;;;7.70;2.10;;;;;;;;;;5048070;28;20033;-71
2022/05/27 10:21:04;;;;;;;9.05;1.67;;;;;;;;;;5048736;28;20033;-71
2022/05/27 10:23:35;;;;;;;7.53;1.60;;;;;;;;;;5044736;28;20038;-72
2022/05/27 10:26:21;;;;;;;7.57;1.83;;;;;;;;;;5047899;28;20029;-72
2022/05/27 10:28:58;;;;;;;8.75;2.28;;;;;;;;;;5048276;28;20037;-71
2022/05/27 10:31:24;;;;;;;6.72;2.00;;;;;;;;;;5046439;28;20033;-72
2022/05/27 10:33:51;;;;;;;7.00;1.90;;;;;;;;;;5033287;28;20061;-72
2022/05/27 10:36:37;;;;;;;7.20;2.30;;;;;;;;;;5037540;28;20026;-73
2022/05/27 10:39:03;;;;;;;5.05;2.00;;;;;;;;;;5046559;28;20119;-72
2022/05/27 10:41:29;;;;;;;6.57;2.30;;;;;;;;;;5049575;28;20025;-72
2022/05/27 10:43:55;;;;;;;7.65;1.80;;;;;;;;;;5048407;28;20056;-70
2022/05/27 10:46:29;;;;;;;6.03;1.90;;;;;;;;;;5046935;28;20098;-68
2022/05/27 10:49:13;;;;;;;8.57;2.20;;;;;;;;;;5043818;28;20036;-71
2022/05/27 10:51:39;;;;;;;7.07;1.92;;;;;;;;;;5058286;28;20029;-69
2022/05/27 10:54:16;;;;;;;10.82;2.00;;;;;;;;;;5050242;28;20091;-68
2022/05/27 11:02:57;;;;;;;12.20;1.90;;;;;;;;;;5047447;28;20560;-68
2022/05/27 11:05:44;;;;;;;8.90;2.40;;;;;;;;;;5046909;28;20417;-69
2022/05/27 11:08:15;;;;;;;9.68;2.53;;;;;;;;;;5043003;28;20421;-69
2022/05/27 11:11:00;;;;;;;5.18;1.88;;;;;;;;;;5043327;28;20091;-69
2022/05/27 11:16:30;;;;;;;17.25;2.97;;;;;;;;;;5043232;28;20063;-69
2022/05/27 11:18:59;;;;;;;9.90;1.90;;;;;;;;;;5038933;28;20029;-69
2022/05/27 11:21:37;;;;;;;11.48;2.47;;;;;;;;;;5030243;28;20594;-66
2022/05/27 11:24:24;;;;;;;9.48;2.03;;;;;;;;;;5030153;28;20030;-69
2022/05/27 11:27:11;;;;;;;6.20;1.65;;;;;;;;;;5017533;28;20073;-69
2022/05/27 11:29:56;;;;;;;7.38;1.85;;;;;;;;;;5035507;28;20792;-66
2022/05/27 11:32:41;;;;;;;12.38;2.00;;;;;;;;;;5022440;28;20095;-68
2022/05/27 11:35:11;;;;;;;8.98;3.03;;;;;;;;;;5026864;28;20025;-69
2022/05/27 11:37:46;;;;;;;8.65;1.98;;;;;;;;;;5026730;28;20041;-68
2022/05/27 11:40:18;;;;;;;9.98;2.13;;;;;;;;;;5024371;28;20030;-68
2022/05/27 11:42:47;;;;;;;7.68;2.03;;;;;;;;;;5026444;28;20030;-74
2022/05/27 11:45:13;;;;;;;5.95;1.98;;;;;;;;;;5014976;28;20092;-74
2022/05/27 11:47:58;;;;;;;8.02;1.50;;;;;;;;;;5024252;28;20415;-73
2022/05/27 11:50:39;;;;;;;8.13;1.88;;;;;;;;;;5026853;28;20041;-74
2022/05/27 11:53:25;;;;;;;7.53;2.00;;;;;;;;;;5026688;28;20025;-73
2022/05/27 11:56:08;;;;;;;8.75;1.73;;;;;;;;;;5026317;28;20037;-74
2022/05/27 11:58:53;;;;;;;5.75;1.80;;;;;;;;;;5015820;28;20501;-75
2022/05/27 12:01:31;;;;;;;10.75;1.83;;;;;;;;;;5030589;28;20064;-74
2022/05/27 12:04:08;;;;;;;11.35;1.80;;;;;;;;;;5031132;28;20518;-71
2022/05/27 12:06:43;;;;;;;8.88;1.80;;;;;;;;;;5029527;28;20479;-73
2022/05/27 12:09:14;;;;;;;7.38;2.10;;;;;;;;;;5028149;28;20037;-72
2022/05/27 12:11:43;;;;;;;8.73;2.08;;;;;;;;;;5030492;28;20033;-71
2022/05/27 12:14:29;;;;;;;5.93;1.60;;;;;;;;;;5026315;28;20449;-71
2022/05/27 12:16:55;;;;;;;9.32;2.03;;;;;;;;;;5015245;28;20025;-71
2022/05/27 12:19:27;;;;;;;8.52;1.98;;;;;;;;;;5028962;28;20602;-70
2022/05/27 12:21:59;;;;;;;8.88;1.77;;;;;;;;;;5032989;28;20496;-71
2022/05/27 12:24:57;;;;;;;6.75;1.73;;;;;;;;;;5027492;28;20057;-72
2022/05/27 12:27:24;;;;;;;6.82;1.83;;;;;;;;;;5029044;28;20060;-70
2022/05/27 12:29:51;;;;;;;8.20;1.60;;;;;;;;;;5026761;28;20398;-69
2022/05/27 12:32:18;;;;;;;6.88;1.70;;;;;;;;;;5027116;28;20029;-71
2022/05/27 12:34:45;;;;;;;6.53;1.60;;;;;;;;;;5026710;28;20078;-69
2022/05/27 12:37:22;;;;;;;7.10;1.88;;;;;;;;;;5041283;28;20643;-68
2022/05/27 12:39:49;;;;;;;5.75;2.10;;;;;;;;;;5029957;28;20057;-69
2022/05/27 12:42:20;;;;;;;6.63;1.90;;;;;;;;;;5027234;28;20033;-69
2022/05/27 12:44:47;;;;;;;9.25;2.03;;;;;;;;;;5026988;28;20049;-69
2022/05/27 12:47:20;;;;;;;6.88;1.90;;;;;;;;;;5030154;28;20042;-69
2022/05/27 12:49:58;;;;;;;11.15;2.00;;;;;;;;;;5027140;28;20524;-70
2022/05/27 12:52:30;;;;;;;10.00;2.50;;;;;;;;;;5011359;28;20030;-70
2022/05/27 12:54:56;;;;;;;8.32;1.70;;;;;;;;;;5029583;28;20041;-69
2022/05/27 13:03:08;;;;;;;9.75;2.00;;;;;;;;;;5033953;28;20571;-70
2022/05/27 13:05:53;;;;;;;7.88;2.40;;;;;;;;;;5036737;28;20504;-70
2022/05/27 13:08:20;;;;;;;8.20;2.25;;;;;;;;;;5031480;28;20533;-70
2022/05/27 13:10:48;;;;;;;9.15;2.30;;;;;;;;;;5032023;28;20570;-69
2022/05/27 13:13:15;;;;;;;7.00;1.70;;;;;;;;;;5032402;28;20055;-70
2022/05/27 13:15:44;;;;;;;9.60;1.88;;;;;;;;;;5041667;28;20059;-71
2022/05/27 13:18:13;;;;;;;11.57;2.13;;;;;;;;;;5033213;28;20033;-69
2022/05/27 13:21:02;;;;;;;6.95;1.70;;;;;;;;;;5030401;28;20032;-69
2022/05/27 13:23:29;;;;;;;6.93;1.77;;;;;;;;;;5031578;28;20061;-69
2022/05/27 13:26:15;;;;;;;6.28;1.85;;;;;;;;;;5032111;28;20030;-70
2022/05/27 13:28:52;;;;;;;8.25;1.95;;;;;;;;;;5017881;28;20132;-69
2022/05/27 13:31:24;;;;;;;6.72;1.75;;;;;;;;;;5031882;28;20034;-70
2022/05/27 13:34:00;;;;;;;8.77;1.85;;;;;;;;;;5032259;28;20051;-69
2022/05/27 13:36:27;;;;;;;4.85;1.60;;;;;;;;;;5032062;28;20474;-69
2022/05/27 13:39:00;;;;;;;7.40;1.80;;;;;;;;;;5031127;28;20417;-70
2022/05/27 13:41:27;;;;;;;6.32;2.10;;;;;;;;;;5031334;28;20036;-69
2022/05/27 13:43:54;;;;;;;7.25;1.55;;;;;;;;;;5034661;28;20018;-69
2022/05/27 13:46:25;;;;;;;7.75;1.80;;;;;;;;;;5031919;28;20034;-69
2022/05/27 13:48:58;;;;;;;9.05;2.15;;;;;;;;;;5032301;28;20140;-69
2022/05/27 13:51:25;;;;;;;6.23;1.50;;;;;;;;;;5031085;28;20033;-70
2022/05/27 13:53:52;;;;;;;8.82;1.85;;;;;;;;;;5031626;28;20044;-69
2022/05/27 13:56:25;;;;;;;7.88;1.77;;;;;;;;;;5031232;28;20028;-69
2022/05/27 13:58:54;;;;;;;7.25;1.80;;;;;;;;;;5031478;28;20053;-70
2022/05/27 14:01:22;;;;;;;10.40;1.80;;;;;;;;;;5031343;28;20039;-69
2022/05/27 14:03:51;;;;;;;5.57;1.80;;;;;;;;;;5032288;28;20169;-69
2022/05/27 14:06:25;;;;;;;5.25;1.50;;;;;;;;;;5030522;28;20045;-70
2022/05/27 14:08:52;;;;;;;9.50;2.25;;;;;;;;;;5031190;28;20032;-70
2022/05/27 14:11:21;;;;;;;7.15;1.88;;;;;;;;;;5031585;28;20033;-70
2022/05/27 14:13:50;;;;;;;8.23;2.10;;;;;;;;;;5031103;28;20061;-70
2022/05/27 14:16:27;;;;;;;9.95;1.95;;;;;;;;;;5031172;28;20044;-71
2022/05/27 14:18:54;;;;;;;7.05;1.95;;;;;;;;;;5027708;28;20041;-69
2022/05/27 14:24:17;;;;;;;6.95;2.08;;;;;;;;;;5031147;28;20036;-70
2022/05/27 14:26:43;;;;;;;6.68;1.83;;;;;;;;;;5030749;28;20575;-69
2022/05/27 14:29:13;;;;;;;7.30;1.85;;;;;;;;;;5031021;28;20390;-69
2022/05/27 14:31:39;;;;;;;5.53;1.60;;;;;;;;;;5031162;28;20033;-70
2022/05/27 14:34:10;;;;;;;7.75;1.98;;;;;;;;;;5032358;28;20040;-69
2022/05/27 14:36:40;;;;;;;8.27;1.58;;;;;;;;;;5031352;28;20072;-70
2022/05/27 14:39:07;;;;;;;8.40;1.75;;;;;;;;;;5034516;28;20029;-69
2022/05/27 14:41:38;;;;;;;9.98;1.90;;;;;;;;;;5032019;28;20061;-70
2022/05/27 14:44:05;;;;;;;6.13;1.73;;;;;;;;;;5031204;28;20033;-69
2022/05/27 14:46:39;;;;;;;8.27;1.75;;;;;;;;;;5030764;28;20071;-69
2022/05/27 14:49:25;;;;;;;7.38;1.75;;;;;;;;;;5031009;28;20038;-70
2022/05/27 14:51:51;;;;;;;5.88;1.73;;;;;;;;;;5031327;28;20033;-70
2022/05/27 14:54:32;;;;;;;4.72;1.58;;;;;;;;;;5032830;28;20029;-70
2022/05/27 14:57:17;;;;;;;7.25;1.40;;;;;;;;;;5038004;28;20021;-70
2022/05/27 14:59:54;;;;;;;9.02;1.75;;;;;;;;;;5034345;28;20040;-70
2022/05/27 15:02:21;;;;;;;8.45;1.75;;;;;;;;;;5034362;28;20037;-69
2022/05/27 15:04:58;;;;;;;9.02;2.10;;;;;;;;;;5034398;28;20100;-70
2022/05/27 15:07:30;;;;;;;6.47;1.65;;;;;;;;;;5034032;28;20128;-69
2022/05/27 15:10:00;;;;;;;6.88;1.52;;;;;;;;;;5031244;28;20088;-70
2022/05/27 15:12:28;;;;;;;8.68;1.70;;;;;;;;;;5034565;28;20052;-69
2022/05/27 15:14:55;;;;;;;6.93;1.65;;;;;;;;;;5034166;28;20033;-69
2022/05/27 15:17:28;;;;;;;6.68;1.63;;;;;;;;;;5032899;28;20064;-69
2022/05/27 15:19:57;;;;;;;11.40;1.80;;;;;;;;;;5033940;28;20547;-69
2022/05/27 15:22:24;;;;;;;7.50;1.85;;;;;;;;;;5034215;28;20390;-69
2022/05/27 15:24:56;;;;;;;8.98;1.90;;;;;;;;;;5034870;28;20068;-69
2022/05/27 15:33:12;;;;;;;8.63;1.83;;;;;;;;;;5038313;28;20067;-70
2022/05/27 15:35:47;;;;;;;9.88;1.60;;;;;;;;;;5040117;28;20025;-69
2022/05/27 15:38:14;;;;;;;4.72;1.60;;;;;;;;;;5033556;28;20026;-70
2022/05/27 15:40:41;;;;;;;5.75;1.65;;;;;;;;;;5033801;28;20029;-69
2022/05/27 15:43:20;;;;;;;5.40;1.73;;;;;;;;;;5033904;28;20048;-71
2022/05/27 15:45:47;;;;;;;6.90;1.60;;;;;;;;;;5033725;28;20025;-71